sensor_id;sensor_type;location;lat;lon;timestamp;P1;durP1;ratioP1;P2;durP2;ratioP2
14994;SDS011;7593;49.006;8.372;2022-12-28T00:00:08;9.27;;;6.77;;
14994;SDS011;7593;49.006;8.372;2022-12-28T00:02:35;8.40;;;5.93;;
14994;SDS011;7593;49.006;8.372;2022-12-28T00:05:04;8.90;;;6.20;;
14994;SDS011;7593;49.006;8.372;2022-12-28T00:07:31;8.97;;;6.30;;
14994;SDS011;7593;49.006;8.372;2022-12-28T00:09:57;7.30;;;5.83;;
14994;SDS011;7593;49.006;8.372;2022-12-28T00:12:24;10.20;;;5.97;;
14994;SDS011;7593;49.006;8.372;2022-12-28T00:14:51;8.03;;;5.40;;
14994;SDS011;7593;49.006;8.372;2022-12-28T00:17:17;7.77;;;5.20;;
14994;SDS011;7593;49.006;8.372;2022-12-28T00:19:44;8.33;;;5.13;;
14994;SDS011;7593;49.006;8.372;2022-12-28T00:22:12;7.57;;;5.07;;
14994;SDS011;7593;49.006;8.372;2022-12-28T00:24:39;6.67;;;4.70;;
14994;SDS011;7593;49.006;8.372;2022-12-28T00:27:06;6.63;;;4.43;;
14994;SDS011;7593;49.006;8.372;2022-12-28T00:29:33;7.30;;;5.23;;
14994;SDS011;7593;49.006;8.372;2022-12-28T00:32:00;6.40;;;4.70;;
14994;SDS011;7593;49.006;8.372;2022-12-28T00:34:27;8.43;;;5.00;;
14994;SDS011;7593;49.006;8.372;2022-12-28T00:36:53;8.27;;;5.60;;
14994;SDS011;7593;49.006;8.372;2022-12-28T00:39:21;6.50;;;5.00;;
14994;SDS011;7593;49.006;8.372;2022-12-28T00:41:48;6.53;;;4.90;;
14994;SDS011;7593;49.006;8.372;2022-12-28T00:44:15;8.97;;;5.33;;
14994;SDS011;7593;49.006;8.372;2022-12-28T00:46:41;6.17;;;4.90;;
14994;SDS011;7593;49.006;8.372;2022-12-28T00:49:08;6.53;;;5.03;;
14994;SDS011;7593;49.006;8.372;2022-12-28T00:51:35;8.03;;;5.50;;
14994;SDS011;7593;49.006;8.372;2022-12-28T00:54:02;7.27;;;4.97;;
14994;SDS011;7593;49.006;8.372;2022-12-28T00:56:30;7.87;;;5.00;;
14994;SDS011;7593;49.006;8.372;2022-12-28T00:58:57;6.03;;;4.97;;
14994;SDS011;7593;49.006;8.372;2022-12-28T01:01:25;8.90;;;5.07;;
14994;SDS011;7593;49.006;8.372;2022-12-28T01:03:53;7.90;;;4.97;;
14994;SDS011;7593;49.006;8.372;2022-12-28T01:06:21;9.13;;;5.33;;
14994;SDS011;7593;49.006;8.372;2022-12-28T01:08:48;7.20;;;5.17;;
14994;SDS011;7593;49.006;8.372;2022-12-28T01:11:15;7.93;;;5.07;;
14994;SDS011;7593;49.006;8.372;2022-12-28T01:13:45;7.67;;;5.23;;
14994;SDS011;7593;49.006;8.372;2022-12-28T01:16:13;8.90;;;5.40;;
14994;SDS011;7593;49.006;8.372;2022-12-28T01:18:41;7.93;;;4.80;;
14994;SDS011;7593;49.006;8.372;2022-12-28T01:21:10;6.63;;;5.30;;
14994;SDS011;7593;49.006;8.372;2022-12-28T01:23:38;8.47;;;5.63;;
14994;SDS011;7593;49.006;8.372;2022-12-28T01:26:05;7.20;;;5.00;;
14994;SDS011;7593;49.006;8.372;2022-12-28T01:28:32;8.93;;;5.40;;
14994;SDS011;7593;49.006;8.372;2022-12-28T01:31:03;9.03;;;5.70;;
14994;SDS011;7593;49.006;8.372;2022-12-28T01:33:30;12.17;;;6.10;;
14994;SDS011;7593;49.006;8.372;2022-12-28T01:35:57;7.33;;;5.03;;
14994;SDS011;7593;49.006;8.372;2022-12-28T01:38:24;11.37;;;6.97;;
14994;SDS011;7593;49.006;8.372;2022-12-28T01:40:50;6.77;;;5.13;;
14994;SDS011;7593;49.006;8.372;2022-12-28T01:43:17;9.87;;;5.60;;
14994;SDS011;7593;49.006;8.372;2022-12-28T01:45:46;10.33;;;5.83;;
14994;SDS011;7593;49.006;8.372;2022-12-28T01:48:19;8.33;;;5.77;;
14994;SDS011;7593;49.006;8.372;2022-12-28T01:50:49;8.07;;;5.20;;
14994;SDS011;7593;49.006;8.372;2022-12-28T01:53:17;6.70;;;4.90;;
14994;SDS011;7593;49.006;8.372;2022-12-28T01:55:46;9.13;;;5.33;;
14994;SDS011;7593;49.006;8.372;2022-12-28T01:58:14;9.13;;;4.90;;
14994;SDS011;7593;49.006;8.372;2022-12-28T02:00:44;8.63;;;4.97;;
14994;SDS011;7593;49.006;8.372;2022-12-28T02:03:11;9.47;;;6.33;;
14994;SDS011;7593;49.006;8.372;2022-12-28T02:05:43;6.13;;;4.40;;
14994;SDS011;7593;49.006;8.372;2022-12-28T02:08:14;7.67;;;5.40;;
14994;SDS011;7593;49.006;8.372;2022-12-28T02:10:47;8.20;;;5.37;;
14994;SDS011;7593;49.006;8.372;2022-12-28T02:13:15;9.93;;;6.90;;
14994;SDS011;7593;49.006;8.372;2022-12-28T02:15:43;8.17;;;5.47;;
14994;SDS011;7593;49.006;8.372;2022-12-28T02:18:10;6.70;;;4.87;;
14994;SDS011;7593;49.006;8.372;2022-12-28T02:20:40;7.07;;;4.90;;
14994;SDS011;7593;49.006;8.372;2022-12-28T02:23:29;5.90;;;4.30;;
14994;SDS011;7593;49.006;8.372;2022-12-28T02:32:02;6.97;;;5.03;;
14994;SDS011;7593;49.006;8.372;2022-12-28T02:34:37;6.30;;;4.47;;
14994;SDS011;7593;49.006;8.372;2022-12-28T02:37:10;7.70;;;4.50;;
14994;SDS011;7593;49.006;8.372;2022-12-28T02:39:42;6.07;;;4.57;;
14994;SDS011;7593;49.006;8.372;2022-12-28T02:42:14;7.20;;;4.50;;
14994;SDS011;7593;49.006;8.372;2022-12-28T02:44:44;5.97;;;4.33;;
14994;SDS011;7593;49.006;8.372;2022-12-28T02:47:28;5.97;;;4.37;;
14994;SDS011;7593;49.006;8.372;2022-12-28T02:50:13;7.17;;;4.80;;
14994;SDS011;7593;49.006;8.372;2022-12-28T02:52:46;5.73;;;4.80;;
14994;SDS011;7593;49.006;8.372;2022-12-28T02:55:28;5.43;;;4.07;;
14994;SDS011;7593;49.006;8.372;2022-12-28T02:58:34;5.47;;;4.33;;
14994;SDS011;7593;49.006;8.372;2022-12-28T03:01:26;6.50;;;4.83;;
14994;SDS011;7593;49.006;8.372;2022-12-28T03:04:11;10.30;;;6.83;;
14994;SDS011;7593;49.006;8.372;2022-12-28T03:06:45;5.43;;;4.33;;
14994;SDS011;7593;49.006;8.372;2022-12-28T03:09:39;6.33;;;4.00;;
14994;SDS011;7593;49.006;8.372;2022-12-28T03:12:13;5.37;;;4.20;;
14994;SDS011;7593;49.006;8.372;2022-12-28T03:14:45;5.63;;;4.17;;
14994;SDS011;7593;49.006;8.372;2022-12-28T03:17:15;5.50;;;4.30;;
14994;SDS011;7593;49.006;8.372;2022-12-28T03:20:04;5.77;;;4.23;;
14994;SDS011;7593;49.006;8.372;2022-12-28T03:22:51;5.30;;;4.03;;
14994;SDS011;7593;49.006;8.372;2022-12-28T03:25:39;5.47;;;3.50;;
14994;SDS011;7593;49.006;8.372;2022-12-28T03:28:26;5.07;;;3.67;;
14994;SDS011;7593;49.006;8.372;2022-12-28T03:31:13;3.90;;;3.20;;
14994;SDS011;7593;49.006;8.372;2022-12-28T03:33:45;4.30;;;3.80;;
14994;SDS011;7593;49.006;8.372;2022-12-28T03:36:14;7.07;;;3.90;;
14994;SDS011;7593;49.006;8.372;2022-12-28T03:38:48;5.03;;;3.63;;
14994;SDS011;7593;49.006;8.372;2022-12-28T03:41:22;4.93;;;4.07;;
14994;SDS011;7593;49.006;8.372;2022-12-28T03:43:54;3.93;;;3.27;;
14994;SDS011;7593;49.006;8.372;2022-12-28T03:46:26;5.60;;;3.60;;
14994;SDS011;7593;49.006;8.372;2022-12-28T03:48:57;4.27;;;3.87;;
14994;SDS011;7593;49.006;8.372;2022-12-28T03:51:25;5.47;;;3.77;;
14994;SDS011;7593;49.006;8.372;2022-12-28T03:53:54;5.03;;;3.70;;
14994;SDS011;7593;49.006;8.372;2022-12-28T03:56:21;6.20;;;3.80;;
14994;SDS011;7593;49.006;8.372;2022-12-28T03:58:49;7.17;;;4.30;;
14994;SDS011;7593;49.006;8.372;2022-12-28T04:01:16;4.60;;;3.57;;
14994;SDS011;7593;49.006;8.372;2022-12-28T04:03:44;3.80;;;3.50;;
14994;SDS011;7593;49.006;8.372;2022-12-28T04:06:13;6.77;;;3.83;;
14994;SDS011;7593;49.006;8.372;2022-12-28T04:08:40;4.63;;;3.60;;
14994;SDS011;7593;49.006;8.372;2022-12-28T04:11:07;4.97;;;3.50;;
14994;SDS011;7593;49.006;8.372;2022-12-28T04:13:34;5.77;;;4.00;;
14994;SDS011;7593;49.006;8.372;2022-12-28T04:16:02;6.30;;;3.60;;
14994;SDS011;7593;49.006;8.372;2022-12-28T04:18:30;5.17;;;4.20;;
14994;SDS011;7593;49.006;8.372;2022-12-28T04:20:57;7.17;;;4.10;;
14994;SDS011;7593;49.006;8.372;2022-12-28T04:23:26;4.97;;;3.47;;
14994;SDS011;7593;49.006;8.372;2022-12-28T04:25:57;6.60;;;4.30;;
14994;SDS011;7593;49.006;8.372;2022-12-28T04:28:25;4.07;;;3.40;;
14994;SDS011;7593;49.006;8.372;2022-12-28T04:30:53;4.80;;;3.60;;
14994;SDS011;7593;49.006;8.372;2022-12-28T04:33:20;5.07;;;3.87;;
14994;SDS011;7593;49.006;8.372;2022-12-28T04:35:46;3.93;;;3.33;;
14994;SDS011;7593;49.006;8.372;2022-12-28T04:38:13;4.30;;;3.70;;
14994;SDS011;7593;49.006;8.372;2022-12-28T04:40:41;3.57;;;3.17;;
14994;SDS011;7593;49.006;8.372;2022-12-28T04:43:08;3.50;;;3.00;;
14994;SDS011;7593;49.006;8.372;2022-12-28T04:45:35;4.40;;;3.43;;
14994;SDS011;7593;49.006;8.372;2022-12-28T04:48:02;2.97;;;2.37;;
14994;SDS011;7593;49.006;8.372;2022-12-28T04:50:29;4.23;;;2.60;;
14994;SDS011;7593;49.006;8.372;2022-12-28T04:52:57;3.73;;;3.00;;
14994;SDS011;7593;49.006;8.372;2022-12-28T04:55:24;3.10;;;2.17;;
14994;SDS011;7593;49.006;8.372;2022-12-28T04:57:52;5.67;;;2.27;;
14994;SDS011;7593;49.006;8.372;2022-12-28T05:00:18;3.23;;;1.90;;
14994;SDS011;7593;49.006;8.372;2022-12-28T05:02:45;2.77;;;1.37;;
14994;SDS011;7593;49.006;8.372;2022-12-28T05:05:12;3.73;;;1.50;;
14994;SDS011;7593;49.006;8.372;2022-12-28T05:07:39;1.43;;;1.30;;
14994;SDS011;7593;49.006;8.372;2022-12-28T05:10:05;3.00;;;1.43;;
14994;SDS011;7593;49.006;8.372;2022-12-28T05:12:33;1.80;;;1.27;;
14994;SDS011;7593;49.006;8.372;2022-12-28T05:15:01;1.77;;;1.00;;
14994;SDS011;7593;49.006;8.372;2022-12-28T05:17:27;1.93;;;1.20;;
14994;SDS011;7593;49.006;8.372;2022-12-28T05:19:54;2.20;;;1.30;;
14994;SDS011;7593;49.006;8.372;2022-12-28T05:22:21;1.97;;;1.20;;
14994;SDS011;7593;49.006;8.372;2022-12-28T05:24:47;2.47;;;1.17;;
14994;SDS011;7593;49.006;8.372;2022-12-28T05:27:14;3.40;;;1.07;;
14994;SDS011;7593;49.006;8.372;2022-12-28T05:29:41;2.57;;;1.30;;
14994;SDS011;7593;49.006;8.372;2022-12-28T05:32:09;2.43;;;1.10;;
14994;SDS011;7593;49.006;8.372;2022-12-28T05:34:36;2.67;;;0.90;;
14994;SDS011;7593;49.006;8.372;2022-12-28T05:37:02;1.97;;;0.90;;
14994;SDS011;7593;49.006;8.372;2022-12-28T05:39:29;1.80;;;1.07;;
14994;SDS011;7593;49.006;8.372;2022-12-28T05:41:56;1.43;;;0.90;;
14994;SDS011;7593;49.006;8.372;2022-12-28T05:44:24;1.70;;;0.95;;
14994;SDS011;7593;49.006;8.372;2022-12-28T05:46:51;1.87;;;1.07;;
14994;SDS011;7593;49.006;8.372;2022-12-28T05:49:19;2.63;;;1.00;;
14994;SDS011;7593;49.006;8.372;2022-12-28T05:51:47;3.13;;;1.15;;
14994;SDS011;7593;49.006;8.372;2022-12-28T05:54:15;2.00;;;1.05;;
14994;SDS011;7593;49.006;8.372;2022-12-28T05:56:42;1.10;;;1.00;;
14994;SDS011;7593;49.006;8.372;2022-12-28T05:59:09;1.77;;;1.10;;
14994;SDS011;7593;49.006;8.372;2022-12-28T06:01:37;3.55;;;1.40;;
14994;SDS011;7593;49.006;8.372;2022-12-28T06:04:06;2.28;;;1.20;;
14994;SDS011;7593;49.006;8.372;2022-12-28T06:06:35;3.10;;;1.17;;
14994;SDS011;7593;49.006;8.372;2022-12-28T06:09:02;1.40;;;0.88;;
14994;SDS011;7593;49.006;8.372;2022-12-28T06:11:29;1.58;;;1.00;;
14994;SDS011;7593;49.006;8.372;2022-12-28T06:13:57;2.33;;;1.13;;
14994;SDS011;7593;49.006;8.372;2022-12-28T06:16:25;1.35;;;1.00;;
14994;SDS011;7593;49.006;8.372;2022-12-28T06:18:53;1.33;;;0.93;;
14994;SDS011;7593;49.006;8.372;2022-12-28T06:21:20;1.40;;;1.00;;
14994;SDS011;7593;49.006;8.372;2022-12-28T06:23:50;1.85;;;0.95;;
14994;SDS011;7593;49.006;8.372;2022-12-28T06:26:17;2.10;;;1.10;;
14994;SDS011;7593;49.006;8.372;2022-12-28T06:28:46;1.85;;;1.00;;
14994;SDS011;7593;49.006;8.372;2022-12-28T06:31:14;1.73;;;1.00;;
14994;SDS011;7593;49.006;8.372;2022-12-28T06:33:43;1.52;;;0.93;;
14994;SDS011;7593;49.006;8.372;2022-12-28T06:36:10;2.00;;;1.20;;
14994;SDS011;7593;49.006;8.372;2022-12-28T06:38:38;1.77;;;0.95;;
14994;SDS011;7593;49.006;8.372;2022-12-28T06:41:06;2.30;;;1.00;;
14994;SDS011;7593;49.006;8.372;2022-12-28T06:43:35;4.35;;;1.55;;
14994;SDS011;7593;49.006;8.372;2022-12-28T06:46:03;2.70;;;1.60;;
14994;SDS011;7593;49.006;8.372;2022-12-28T06:48:31;1.20;;;1.00;;
14994;SDS011;7593;49.006;8.372;2022-12-28T06:51:00;3.38;;;1.55;;
14994;SDS011;7593;49.006;8.372;2022-12-28T06:53:28;2.20;;;1.08;;
14994;SDS011;7593;49.006;8.372;2022-12-28T06:55:57;2.88;;;1.20;;
14994;SDS011;7593;49.006;8.372;2022-12-28T06:58:27;2.10;;;1.20;;
14994;SDS011;7593;49.006;8.372;2022-12-28T07:00:54;2.72;;;1.40;;
14994;SDS011;7593;49.006;8.372;2022-12-28T07:03:21;3.10;;;1.30;;
14994;SDS011;7593;49.006;8.372;2022-12-28T07:05:49;3.47;;;1.23;;
14994;SDS011;7593;49.006;8.372;2022-12-28T07:08:16;1.63;;;1.23;;
14994;SDS011;7593;49.006;8.372;2022-12-28T07:10:43;2.10;;;1.25;;
14994;SDS011;7593;49.006;8.372;2022-12-28T07:13:10;3.42;;;1.65;;
14994;SDS011;7593;49.006;8.372;2022-12-28T07:15:38;3.42;;;1.10;;
14994;SDS011;7593;49.006;8.372;2022-12-28T07:18:05;1.10;;;1.00;;
14994;SDS011;7593;49.006;8.372;2022-12-28T07:20:32;1.83;;;1.23;;
14994;SDS011;7593;49.006;8.372;2022-12-28T07:22:59;2.10;;;1.15;;
14994;SDS011;7593;49.006;8.372;2022-12-28T07:25:25;3.17;;;1.23;;
14994;SDS011;7593;49.006;8.372;2022-12-28T07:27:52;3.53;;;1.50;;
14994;SDS011;7593;49.006;8.372;2022-12-28T07:30:19;2.95;;;1.40;;
14994;SDS011;7593;49.006;8.372;2022-12-28T07:32:47;1.20;;;1.10;;
14994;SDS011;7593;49.006;8.372;2022-12-28T07:35:14;2.88;;;1.50;;
14994;SDS011;7593;49.006;8.372;2022-12-28T07:37:40;2.17;;;1.10;;
14994;SDS011;7593;49.006;8.372;2022-12-28T07:40:08;3.10;;;1.33;;
14994;SDS011;7593;49.006;8.372;2022-12-28T07:42:35;2.60;;;1.13;;
14994;SDS011;7593;49.006;8.372;2022-12-28T07:45:02;4.03;;;1.20;;
14994;SDS011;7593;49.006;8.372;2022-12-28T07:47:33;3.25;;;1.10;;
14994;SDS011;7593;49.006;8.372;2022-12-28T07:50:01;2.95;;;1.20;;
14994;SDS011;7593;49.006;8.372;2022-12-28T07:52:27;2.67;;;1.40;;
14994;SDS011;7593;49.006;8.372;2022-12-28T07:54:54;1.67;;;1.30;;
14994;SDS011;7593;49.006;8.372;2022-12-28T07:57:21;2.65;;;2.10;;
14994;SDS011;7593;49.006;8.372;2022-12-28T07:59:47;4.25;;;2.40;;
14994;SDS011;7593;49.006;8.372;2022-12-28T08:02:14;2.35;;;1.52;;
14994;SDS011;7593;49.006;8.372;2022-12-28T08:04:41;3.05;;;1.95;;
14994;SDS011;7593;49.006;8.372;2022-12-28T08:07:09;4.88;;;2.42;;
14994;SDS011;7593;49.006;8.372;2022-12-28T08:09:36;4.95;;;2.72;;
14994;SDS011;7593;49.006;8.372;2022-12-28T08:12:03;1.75;;;1.20;;
14994;SDS011;7593;49.006;8.372;2022-12-28T08:14:30;3.50;;;1.40;;
14994;SDS011;7593;49.006;8.372;2022-12-28T08:16:57;3.83;;;1.50;;
14994;SDS011;7593;49.006;8.372;2022-12-28T08:19:24;1.75;;;1.38;;
14994;SDS011;7593;49.006;8.372;2022-12-28T08:21:50;2.95;;;2.00;;
14994;SDS011;7593;49.006;8.372;2022-12-28T08:24:19;2.10;;;1.50;;
14994;SDS011;7593;49.006;8.372;2022-12-28T08:26:46;5.82;;;3.10;;
14994;SDS011;7593;49.006;8.372;2022-12-28T08:29:14;5.30;;;1.83;;
14994;SDS011;7593;49.006;8.372;2022-12-28T08:31:43;3.28;;;2.17;;
14994;SDS011;7593;49.006;8.372;2022-12-28T08:34:12;4.25;;;2.42;;
14994;SDS011;7593;49.006;8.372;2022-12-28T08:36:40;3.80;;;2.58;;
14994;SDS011;7593;49.006;8.372;2022-12-28T08:39:07;2.25;;;1.67;;
14994;SDS011;7593;49.006;8.372;2022-12-28T08:41:36;5.03;;;2.95;;
14994;SDS011;7593;49.006;8.372;2022-12-28T08:44:03;2.90;;;1.88;;
14994;SDS011;7593;49.006;8.372;2022-12-28T08:46:30;3.65;;;1.88;;
14994;SDS011;7593;49.006;8.372;2022-12-28T08:48:59;5.75;;;3.67;;
14994;SDS011;7593;49.006;8.372;2022-12-28T08:51:28;3.60;;;1.98;;
14994;SDS011;7593;49.006;8.372;2022-12-28T08:53:56;4.40;;;2.28;;
14994;SDS011;7593;49.006;8.372;2022-12-28T08:56:24;2.38;;;1.88;;
14994;SDS011;7593;49.006;8.372;2022-12-28T08:58:54;4.07;;;2.20;;
14994;SDS011;7593;49.006;8.372;2022-12-28T09:01:21;2.88;;;1.65;;
14994;SDS011;7593;49.006;8.372;2022-12-28T09:03:51;2.42;;;1.40;;
14994;SDS011;7593;49.006;8.372;2022-12-28T09:06:20;4.55;;;2.60;;
14994;SDS011;7593;49.006;8.372;2022-12-28T09:08:49;4.03;;;1.58;;
14994;SDS011;7593;49.006;8.372;2022-12-28T09:11:17;4.15;;;2.40;;
14994;SDS011;7593;49.006;8.372;2022-12-28T09:13:44;1.63;;;1.30;;
14994;SDS011;7593;49.006;8.372;2022-12-28T09:16:13;2.45;;;1.42;;
14994;SDS011;7593;49.006;8.372;2022-12-28T09:18:51;3.45;;;1.98;;
14994;SDS011;7593;49.006;8.372;2022-12-28T09:21:19;4.60;;;2.30;;
14994;SDS011;7593;49.006;8.372;2022-12-28T09:23:47;3.80;;;2.17;;
14994;SDS011;7593;49.006;8.372;2022-12-28T09:26:15;3.13;;;1.63;;
14994;SDS011;7593;49.006;8.372;2022-12-28T09:28:43;2.20;;;1.58;;
14994;SDS011;7593;49.006;8.372;2022-12-28T09:31:11;3.20;;;1.75;;
14994;SDS011;7593;49.006;8.372;2022-12-28T09:33:39;4.47;;;2.33;;
14994;SDS011;7593;49.006;8.372;2022-12-28T09:36:25;2.47;;;1.65;;
14994;SDS011;7593;49.006;8.372;2022-12-28T09:38:53;3.75;;;1.50;;
14994;SDS011;7593;49.006;8.372;2022-12-28T09:41:21;2.92;;;1.60;;
14994;SDS011;7593;49.006;8.372;2022-12-28T09:43:52;4.30;;;1.70;;
14994;SDS011;7593;49.006;8.372;2022-12-28T09:46:29;3.22;;;1.40;;
14994;SDS011;7593;49.006;8.372;2022-12-28T09:48:58;3.33;;;1.55;;
14994;SDS011;7593;49.006;8.372;2022-12-28T09:51:27;3.33;;;1.50;;
14994;SDS011;7593;49.006;8.372;2022-12-28T09:54:00;3.92;;;2.10;;
14994;SDS011;7593;49.006;8.372;2022-12-28T09:56:31;2.42;;;1.50;;
14994;SDS011;7593;49.006;8.372;2022-12-28T09:59:00;2.55;;;1.50;;
14994;SDS011;7593;49.006;8.372;2022-12-28T10:01:34;2.95;;;1.60;;
14994;SDS011;7593;49.006;8.372;2022-12-28T10:04:03;3.53;;;1.50;;
14994;SDS011;7593;49.006;8.372;2022-12-28T10:06:32;3.28;;;1.45;;
14994;SDS011;7593;49.006;8.372;2022-12-28T10:09:02;2.72;;;1.52;;
14994;SDS011;7593;49.006;8.372;2022-12-28T10:11:31;2.15;;;1.65;;
14994;SDS011;7593;49.006;8.372;2022-12-28T10:14:04;3.40;;;1.65;;
14994;SDS011;7593;49.006;8.372;2022-12-28T10:16:44;2.53;;;1.38;;
14994;SDS011;7593;49.006;8.372;2022-12-28T10:19:13;2.83;;;1.55;;
14994;SDS011;7593;49.006;8.372;2022-12-28T10:21:43;1.52;;;1.30;;
14994;SDS011;7593;49.006;8.372;2022-12-28T10:24:11;2.30;;;1.48;;
14994;SDS011;7593;49.006;8.372;2022-12-28T10:26:39;1.83;;;1.27;;
14994;SDS011;7593;49.006;8.372;2022-12-28T10:29:09;2.83;;;1.27;;
14994;SDS011;7593;49.006;8.372;2022-12-28T10:31:41;1.88;;;1.52;;
14994;SDS011;7593;49.006;8.372;2022-12-28T10:34:14;2.88;;;1.27;;
14994;SDS011;7593;49.006;8.372;2022-12-28T10:36:44;2.05;;;1.20;;
14994;SDS011;7593;49.006;8.372;2022-12-28T10:39:13;1.73;;;1.20;;
14994;SDS011;7593;49.006;8.372;2022-12-28T10:41:45;3.67;;;1.30;;
14994;SDS011;7593;49.006;8.372;2022-12-28T10:44:16;3.28;;;1.27;;
14994;SDS011;7593;49.006;8.372;2022-12-28T10:46:51;1.95;;;1.20;;
14994;SDS011;7593;49.006;8.372;2022-12-28T10:49:22;2.00;;;1.10;;
14994;SDS011;7593;49.006;8.372;2022-12-28T10:51:58;2.08;;;1.30;;
14994;SDS011;7593;49.006;8.372;2022-12-28T10:54:26;1.90;;;1.20;;
14994;SDS011;7593;49.006;8.372;2022-12-28T10:56:57;2.60;;;1.13;;
14994;SDS011;7593;49.006;8.372;2022-12-28T10:59:25;1.50;;;1.00;;
14994;SDS011;7593;49.006;8.372;2022-12-28T11:01:53;1.98;;;1.30;;
14994;SDS011;7593;49.006;8.372;2022-12-28T11:04:40;3.00;;;1.33;;
14994;SDS011;7593;49.006;8.372;2022-12-28T11:07:24;1.77;;;1.30;;
14994;SDS011;7593;49.006;8.372;2022-12-28T11:10:10;1.35;;;1.20;;
14994;SDS011;7593;49.006;8.372;2022-12-28T11:12:40;5.68;;;1.38;;
14994;SDS011;7593;49.006;8.372;2022-12-28T11:15:11;2.15;;;1.40;;
14994;SDS011;7593;49.006;8.372;2022-12-28T11:17:39;2.85;;;1.40;;
14994;SDS011;7593;49.006;8.372;2022-12-28T11:20:12;2.58;;;1.40;;
14994;SDS011;7593;49.006;8.372;2022-12-28T11:22:43;2.35;;;1.55;;
14994;SDS011;7593;49.006;8.372;2022-12-28T11:25:11;2.67;;;1.20;;
14994;SDS011;7593;49.006;8.372;2022-12-28T11:27:40;3.17;;;1.42;;
14994;SDS011;7593;49.006;8.372;2022-12-28T11:30:11;1.63;;;1.38;;
14994;SDS011;7593;49.006;8.372;2022-12-28T11:32:41;1.60;;;1.40;;
14994;SDS011;7593;49.006;8.372;2022-12-28T11:35:16;1.83;;;1.25;;
14994;SDS011;7593;49.006;8.372;2022-12-28T11:37:47;3.38;;;1.33;;
14994;SDS011;7593;49.006;8.372;2022-12-28T12:00:59;2.95;;;1.27;;
14994;SDS011;7593;49.006;8.372;2022-12-28T12:09:37;2.28;;;1.15;;
14994;SDS011;7593;49.006;8.372;2022-12-28T12:15:01;3.08;;;1.40;;
14994;SDS011;7593;49.006;8.372;2022-12-28T12:17:35;3.22;;;1.77;;
14994;SDS011;7593;49.006;8.372;2022-12-28T12:20:14;2.30;;;1.15;;
14994;SDS011;7593;49.006;8.372;2022-12-28T12:22:50;3.75;;;1.10;;
14994;SDS011;7593;49.006;8.372;2022-12-28T12:25:21;1.63;;;1.00;;
14994;SDS011;7593;49.006;8.372;2022-12-28T12:27:54;2.35;;;1.05;;
14994;SDS011;7593;49.006;8.372;2022-12-28T12:30:23;1.80;;;1.20;;
14994;SDS011;7593;49.006;8.372;2022-12-28T12:32:51;2.00;;;1.20;;
14994;SDS011;7593;49.006;8.372;2022-12-28T12:35:21;6.90;;;1.42;;
14994;SDS011;7593;49.006;8.372;2022-12-28T12:37:52;2.78;;;1.40;;
14994;SDS011;7593;49.006;8.372;2022-12-28T12:40:34;2.13;;;1.35;;
14994;SDS011;7593;49.006;8.372;2022-12-28T12:43:24;2.80;;;1.40;;
14994;SDS011;7593;49.006;8.372;2022-12-28T12:46:12;1.50;;;1.25;;
14994;SDS011;7593;49.006;8.372;2022-12-28T12:49:13;3.13;;;1.17;;
14994;SDS011;7593;49.006;8.372;2022-12-28T12:52:03;2.35;;;1.50;;
14994;SDS011;7593;49.006;8.372;2022-12-28T12:54:44;1.48;;;1.20;;
14994;SDS011;7593;49.006;8.372;2022-12-28T12:57:20;1.90;;;1.30;;
14994;SDS011;7593;49.006;8.372;2022-12-28T13:00:02;1.48;;;1.20;;
14994;SDS011;7593;49.006;8.372;2022-12-28T13:02:40;2.05;;;1.40;;
14994;SDS011;7593;49.006;8.372;2022-12-28T13:05:27;2.58;;;1.50;;
14994;SDS011;7593;49.006;8.372;2022-12-28T13:07:55;2.15;;;1.52;;
14994;SDS011;7593;49.006;8.372;2022-12-28T13:10:24;2.72;;;1.38;;
14994;SDS011;7593;49.006;8.372;2022-12-28T13:12:55;4.00;;;1.60;;
14994;SDS011;7593;49.006;8.372;2022-12-28T13:15:26;3.25;;;1.70;;
14994;SDS011;7593;49.006;8.372;2022-12-28T13:17:57;2.65;;;1.30;;
14994;SDS011;7593;49.006;8.372;2022-12-28T13:20:24;2.15;;;1.25;;
14994;SDS011;7593;49.006;8.372;2022-12-28T13:22:51;1.60;;;1.30;;
14994;SDS011;7593;49.006;8.372;2022-12-28T13:25:22;4.13;;;1.98;;
14994;SDS011;7593;49.006;8.372;2022-12-28T13:27:55;3.92;;;2.55;;
14994;SDS011;7593;49.006;8.372;2022-12-28T13:30:23;6.05;;;3.22;;
14994;SDS011;7593;49.006;8.372;2022-12-28T13:32:52;6.32;;;3.78;;
14994;SDS011;7593;49.006;8.372;2022-12-28T13:35:21;4.22;;;3.15;;
14994;SDS011;7593;49.006;8.372;2022-12-28T13:37:59;2.38;;;1.98;;
14994;SDS011;7593;49.006;8.372;2022-12-28T13:40:28;4.18;;;2.70;;
14994;SDS011;7593;49.006;8.372;2022-12-28T13:42:58;3.65;;;1.55;;
14994;SDS011;7593;49.006;8.372;2022-12-28T13:45:37;4.60;;;2.42;;
14994;SDS011;7593;49.006;8.372;2022-12-28T13:48:06;2.42;;;1.67;;
14994;SDS011;7593;49.006;8.372;2022-12-28T13:50:32;5.45;;;3.80;;
14994;SDS011;7593;49.006;8.372;2022-12-28T13:53:06;3.83;;;2.33;;
14994;SDS011;7593;49.006;8.372;2022-12-28T13:55:36;2.53;;;2.00;;
14994;SDS011;7593;49.006;8.372;2022-12-28T13:58:07;3.03;;;2.20;;
14994;SDS011;7593;49.006;8.372;2022-12-28T14:00:37;3.33;;;2.05;;
14994;SDS011;7593;49.006;8.372;2022-12-28T14:03:09;4.30;;;2.70;;
14994;SDS011;7593;49.006;8.372;2022-12-28T14:05:40;2.45;;;1.92;;
14994;SDS011;7593;49.006;8.372;2022-12-28T14:08:09;2.65;;;1.75;;
14994;SDS011;7593;49.006;8.372;2022-12-28T14:10:36;2.55;;;2.10;;
14994;SDS011;7593;49.006;8.372;2022-12-28T14:13:03;5.93;;;4.53;;
14994;SDS011;7593;49.006;8.372;2022-12-28T14:15:30;3.38;;;1.70;;
14994;SDS011;7593;49.006;8.372;2022-12-28T14:18:02;3.40;;;2.10;;
14994;SDS011;7593;49.006;8.372;2022-12-28T14:20:32;2.60;;;1.50;;
14994;SDS011;7593;49.006;8.372;2022-12-28T14:23:18;2.20;;;1.60;;
14994;SDS011;7593;49.006;8.372;2022-12-28T14:25:46;4.07;;;3.25;;
14994;SDS011;7593;49.006;8.372;2022-12-28T14:28:16;3.67;;;1.88;;
14994;SDS011;7593;49.006;8.372;2022-12-28T14:30:49;3.03;;;1.55;;
14994;SDS011;7593;49.006;8.372;2022-12-28T14:33:18;3.00;;;1.50;;
14994;SDS011;7593;49.006;8.372;2022-12-28T14:35:48;1.75;;;1.33;;
14994;SDS011;7593;49.006;8.372;2022-12-28T14:38:18;3.10;;;2.53;;
14994;SDS011;7593;49.006;8.372;2022-12-28T14:40:51;3.90;;;1.55;;
14994;SDS011;7593;49.006;8.372;2022-12-28T14:43:22;3.28;;;2.88;;
14994;SDS011;7593;49.006;8.372;2022-12-28T14:45:50;2.80;;;1.30;;
14994;SDS011;7593;49.006;8.372;2022-12-28T14:48:22;2.00;;;1.33;;
14994;SDS011;7593;49.006;8.372;2022-12-28T14:50:58;2.85;;;1.75;;
14994;SDS011;7593;49.006;8.372;2022-12-28T14:53:26;2.95;;;1.70;;
14994;SDS011;7593;49.006;8.372;2022-12-28T14:56:00;2.17;;;1.60;;
14994;SDS011;7593;49.006;8.372;2022-12-28T14:58:31;2.70;;;1.73;;
14994;SDS011;7593;49.006;8.372;2022-12-28T15:01:04;3.40;;;1.58;;
14994;SDS011;7593;49.006;8.372;2022-12-28T15:03:46;2.97;;;1.52;;
14994;SDS011;7593;49.006;8.372;2022-12-28T15:06:16;3.05;;;1.55;;
14994;SDS011;7593;49.006;8.372;2022-12-28T15:08:45;1.83;;;1.50;;
14994;SDS011;7593;49.006;8.372;2022-12-28T15:11:12;2.17;;;1.60;;
14994;SDS011;7593;49.006;8.372;2022-12-28T15:13:39;2.17;;;1.33;;
14994;SDS011;7593;49.006;8.372;2022-12-28T15:16:08;1.80;;;1.45;;
14994;SDS011;7593;49.006;8.372;2022-12-28T15:18:37;1.25;;;1.15;;
14994;SDS011;7593;49.006;8.372;2022-12-28T15:21:09;3.40;;;1.35;;
14994;SDS011;7593;49.006;8.372;2022-12-28T15:23:38;2.75;;;1.33;;
14994;SDS011;7593;49.006;8.372;2022-12-28T15:26:06;1.42;;;1.20;;
14994;SDS011;7593;49.006;8.372;2022-12-28T15:28:32;1.48;;;1.10;;
14994;SDS011;7593;49.006;8.372;2022-12-28T15:31:02;2.53;;;1.40;;
14994;SDS011;7593;49.006;8.372;2022-12-28T15:33:29;2.42;;;1.58;;
14994;SDS011;7593;49.006;8.372;2022-12-28T15:36:00;2.80;;;1.40;;
14994;SDS011;7593;49.006;8.372;2022-12-28T15:38:27;1.35;;;1.20;;
14994;SDS011;7593;49.006;8.372;2022-12-28T15:40:55;3.28;;;1.50;;
14994;SDS011;7593;49.006;8.372;2022-12-28T15:43:22;3.53;;;2.00;;
14994;SDS011;7593;49.006;8.372;2022-12-28T15:45:51;2.85;;;1.83;;
14994;SDS011;7593;49.006;8.372;2022-12-28T15:48:18;2.45;;;1.88;;
14994;SDS011;7593;49.006;8.372;2022-12-28T15:50:45;3.90;;;1.70;;
14994;SDS011;7593;49.006;8.372;2022-12-28T15:53:11;3.17;;;1.92;;